sensor_id;sensor_type;location;lat;lon;timestamp;temperature;humidity
31443;SHT31;18065;55.876;9.830;2023-03-01T00:00:02;21.67;48.15
31443;SHT31;18065;55.876;9.830;2023-03-01T00:02:32;21.70;48.12
31443;SHT31;18065;55.876;9.830;2023-03-01T00:05:00;21.69;48.13
31443;SHT31;18065;55.876;9.830;2023-03-01T00:07:32;21.67;48.10
31443;SHT31;18065;55.876;9.830;2023-03-01T00:10:00;21.69;48.10
31443;SHT31;18065;55.876;9.830;2023-03-01T00:12:28;21.69;48.07
31443;SHT31;18065;55.876;9.830;2023-03-01T00:14:57;21.66;48.09
31443;SHT31;18065;55.876;9.830;2023-03-01T00:17:25;21.69;48.05
31443;SHT31;18065;55.876;9.830;2023-03-01T00:19:55;21.69;48.06
31443;SHT31;18065;55.876;9.830;2023-03-01T00:22:23;21.66;48.07
31443;SHT31;18065;55.876;9.830;2023-03-01T00:24:55;21.69;48.04
31443;SHT31;18065;55.876;9.830;2023-03-01T00:27:23;21.67;48.07
31443;SHT31;18065;55.876;9.830;2023-03-01T00:29:51;21.67;48.06
31443;SHT31;18065;55.876;9.830;2023-03-01T00:32:20;21.66;48.07
31443;SHT31;18065;55.876;9.830;2023-03-01T00:34:48;21.69;48.06
31443;SHT31;18065;55.876;9.830;2023-03-01T00:37:21;21.67;48.01
31443;SHT31;18065;55.876;9.830;2023-03-01T00:39:49;21.67;48.03
31443;SHT31;18065;55.876;9.830;2023-03-01T00:42:20;21.66;48.01
31443;SHT31;18065;55.876;9.830;2023-03-01T00:44:48;21.67;48.03
31443;SHT31;18065;55.876;9.830;2023-03-01T00:47:17;21.65;48.00
31443;SHT31;18065;55.876;9.830;2023-03-01T00:49:45;21.66;48.02
31443;SHT31;18065;55.876;9.830;2023-03-01T00:52:13;21.66;48.00
31443;SHT31;18065;55.876;9.830;2023-03-01T00:54:42;21.66;48.04
31443;SHT31;18065;55.876;9.830;2023-03-01T00:57:10;21.65;48.00
31443;SHT31;18065;55.876;9.830;2023-03-01T00:59:41;21.65;47.97
31443;SHT31;18065;55.876;9.830;2023-03-01T01:02:09;21.67;47.99
31443;SHT31;18065;55.876;9.830;2023-03-01T01:04:38;21.63;47.96
31443;SHT31;18065;55.876;9.830;2023-03-01T01:07:06;21.65;47.98
31443;SHT31;18065;55.876;9.830;2023-03-01T01:09:34;21.62;47.99
31443;SHT31;18065;55.876;9.830;2023-03-01T01:12:03;21.65;47.99
31443;SHT31;18065;55.876;9.830;2023-03-01T01:14:31;21.63;47.97
31443;SHT31;18065;55.876;9.830;2023-03-01T01:17:02;21.62;47.99
31443;SHT31;18065;55.876;9.830;2023-03-01T01:19:31;21.62;47.98
31443;SHT31;18065;55.876;9.830;2023-03-01T01:21:59;21.62;47.97
31443;SHT31;18065;55.876;9.830;2023-03-01T01:24:28;21.63;47.95
31443;SHT31;18065;55.876;9.830;2023-03-01T01:26:57;21.63;47.94
31443;SHT31;18065;55.876;9.830;2023-03-01T01:29:25;21.63;47.94
31443;SHT31;18065;55.876;9.830;2023-03-01T01:31:53;21.60;47.94
31443;SHT31;18065;55.876;9.830;2023-03-01T01:34:24;21.60;47.93
31443;SHT31;18065;55.876;9.830;2023-03-01T01:36:53;21.62;47.93
31443;SHT31;18065;55.876;9.830;2023-03-01T01:39:21;21.60;47.94
31443;SHT31;18065;55.876;9.830;2023-03-01T01:41:50;21.62;47.93
31443;SHT31;18065;55.876;9.830;2023-03-01T01:44:19;21.62;47.95
31443;SHT31;18065;55.876;9.830;2023-03-01T01:46:49;21.62;47.91
31443;SHT31;18065;55.876;9.830;2023-03-01T01:49:28;21.62;47.93
31443;SHT31;18065;55.876;9.830;2023-03-01T01:51:58;21.60;47.92
31443;SHT31;18065;55.876;9.830;2023-03-01T01:54:29;21.60;47.92
31443;SHT31;18065;55.876;9.830;2023-03-01T01:56:59;21.58;47.89
31443;SHT31;18065;55.876;9.830;2023-03-01T01:59:29;21.58;47.86
31443;SHT31;18065;55.876;9.830;2023-03-01T02:01:59;21.59;47.89
31443;SHT31;18065;55.876;9.830;2023-03-01T02:04:31;21.60;47.91
31443;SHT31;18065;55.876;9.830;2023-03-01T02:07:01;21.59;47.92
31443;SHT31;18065;55.876;9.830;2023-03-01T02:09:31;21.58;47.89
31443;SHT31;18065;55.876;9.830;2023-03-01T02:12:00;21.59;47.90
31443;SHT31;18065;55.876;9.830;2023-03-01T02:14:29;21.59;47.86
31443;SHT31;18065;55.876;9.830;2023-03-01T02:16:57;21.58;47.86
31443;SHT31;18065;55.876;9.830;2023-03-01T02:19:34;21.58;47.88
31443;SHT31;18065;55.876;9.830;2023-03-01T02:22:10;21.56;47.87
31443;SHT31;18065;55.876;9.830;2023-03-01T02:24:40;21.58;47.87
31443;SHT31;18065;55.876;9.830;2023-03-01T02:27:16;21.58;47.86
31443;SHT31;18065;55.876;9.830;2023-03-01T02:29:52;21.55;47.87
31443;SHT31;18065;55.876;9.830;2023-03-01T02:32:21;21.55;47.89
31443;SHT31;18065;55.876;9.830;2023-03-01T02:34:50;21.56;47.84
31443;SHT31;18065;55.876;9.830;2023-03-01T02:37:19;21.58;47.87
31443;SHT31;18065;55.876;9.830;2023-03-01T02:39:51;21.55;47.87
31443;SHT31;18065;55.876;9.830;2023-03-01T02:42:23;21.56;47.87
31443;SHT31;18065;55.876;9.830;2023-03-01T02:44:56;21.56;47.85
31443;SHT31;18065;55.876;9.830;2023-03-01T02:47:24;21.55;47.83
31443;SHT31;18065;55.876;9.830;2023-03-01T02:49:53;21.55;47.82
31443;SHT31;18065;55.876;9.830;2023-03-01T02:52:23;21.52;47.82
31443;SHT31;18065;55.876;9.830;2023-03-01T02:54:57;21.56;47.83
31443;SHT31;18065;55.876;9.830;2023-03-01T02:57:27;21.55;47.83
31443;SHT31;18065;55.876;9.830;2023-03-01T02:59:59;21.52;47.82
31443;SHT31;18065;55.876;9.830;2023-03-01T03:02:32;21.53;47.79
31443;SHT31;18065;55.876;9.830;2023-03-01T03:05:04;21.56;47.80
31443;SHT31;18065;55.876;9.830;2023-03-01T03:07:33;21.53;47.79
31443;SHT31;18065;55.876;9.830;2023-03-01T03:10:03;21.52;47.81
31443;SHT31;18065;55.876;9.830;2023-03-01T03:12:32;21.50;47.81
31443;SHT31;18065;55.876;9.830;2023-03-01T03:15:04;21.52;47.79
31443;SHT31;18065;55.876;9.830;2023-03-01T03:17:34;21.52;47.77
31443;SHT31;18065;55.876;9.830;2023-03-01T03:20:02;21.50;47.77
31443;SHT31;18065;55.876;9.830;2023-03-01T03:22:36;21.50;47.74
31443;SHT31;18065;55.876;9.830;2023-03-01T03:25:05;21.53;47.78
31443;SHT31;18065;55.876;9.830;2023-03-01T03:27:35;21.50;47.75
31443;SHT31;18065;55.876;9.830;2023-03-01T03:30:07;21.48;47.80
31443;SHT31;18065;55.876;9.830;2023-03-01T03:32:37;21.50;47.76
31443;SHT31;18065;55.876;9.830;2023-03-01T03:35:06;21.49;47.74
31443;SHT31;18065;55.876;9.830;2023-03-01T03:37:36;21.49;47.73
31443;SHT31;18065;55.876;9.830;2023-03-01T03:40:17;21.50;47.73
31443;SHT31;18065;55.876;9.830;2023-03-01T03:42:46;21.49;47.74
31443;SHT31;18065;55.876;9.830;2023-03-01T03:45:17;21.48;47.75
31443;SHT31;18065;55.876;9.830;2023-03-01T03:47:45;21.49;47.74
31443;SHT31;18065;55.876;9.830;2023-03-01T03:50:14;21.46;47.75
31443;SHT31;18065;55.876;9.830;2023-03-01T03:52:43;21.48;47.70
31443;SHT31;18065;55.876;9.830;2023-03-01T03:55:12;21.49;47.70
31443;SHT31;18065;55.876;9.830;2023-03-01T03:57:45;21.49;47.70
31443;SHT31;18065;55.876;9.830;2023-03-01T04:00:17;21.46;47.72
31443;SHT31;18065;55.876;9.830;2023-03-01T04:02:46;21.48;47.66
31443;SHT31;18065;55.876;9.830;2023-03-01T04:05:16;21.45;47.68
31443;SHT31;18065;55.876;9.830;2023-03-01T04:07:45;21.48;47.73
31443;SHT31;18065;55.876;9.830;2023-03-01T04:10:14;21.45;47.72
31443;SHT31;18065;55.876;9.830;2023-03-01T04:12:43;21.43;47.71
31443;SHT31;18065;55.876;9.830;2023-03-01T04:15:11;21.43;47.69
31443;SHT31;18065;55.876;9.830;2023-03-01T04:17:46;21.46;47.67
31443;SHT31;18065;55.876;9.830;2023-03-01T04:20:15;21.43;47.69
31443;SHT31;18065;55.876;9.830;2023-03-01T04:22:50;21.45;47.68
31443;SHT31;18065;55.876;9.830;2023-03-01T04:25:19;21.42;47.69
31443;SHT31;18065;55.876;9.830;2023-03-01T04:27:47;21.45;47.66
31443;SHT31;18065;55.876;9.830;2023-03-01T04:30:16;21.45;47.69
31443;SHT31;18065;55.876;9.830;2023-03-01T04:32:47;21.43;47.68
31443;SHT31;18065;55.876;9.830;2023-03-01T04:35:17;21.42;47.59
31443;SHT31;18065;55.876;9.830;2023-03-01T04:37:45;21.43;47.63
31443;SHT31;18065;55.876;9.830;2023-03-01T04:40:14;21.42;47.65
31443;SHT31;18065;55.876;9.830;2023-03-01T04:42:43;21.43;47.62
31443;SHT31;18065;55.876;9.830;2023-03-01T04:45:12;21.42;47.65
31443;SHT31;18065;55.876;9.830;2023-03-01T04:47:40;21.41;47.63
31443;SHT31;18065;55.876;9.830;2023-03-01T04:50:12;21.41;47.64
31443;SHT31;18065;55.876;9.830;2023-03-01T04:52:41;21.42;47.64
31443;SHT31;18065;55.876;9.830;2023-03-01T04:55:10;21.41;47.62
31443;SHT31;18065;55.876;9.830;2023-03-01T04:57:38;21.42;47.61
31443;SHT31;18065;55.876;9.830;2023-03-01T05:00:08;21.43;47.64
31443;SHT31;18065;55.876;9.830;2023-03-01T05:02:45;21.39;47.61
31443;SHT31;18065;55.876;9.830;2023-03-01T05:05:16;21.38;47.63
31443;SHT31;18065;55.876;9.830;2023-03-01T05:07:45;21.41;47.63
31443;SHT31;18065;55.876;9.830;2023-03-01T05:10:13;21.38;47.66
31443;SHT31;18065;55.876;9.830;2023-03-01T05:12:42;21.39;47.61
31443;SHT31;18065;55.876;9.830;2023-03-01T05:15:12;21.36;47.59
31443;SHT31;18065;55.876;9.830;2023-03-01T05:17:40;21.38;47.60
31443;SHT31;18065;55.876;9.830;2023-03-01T05:20:09;21.41;47.60
31443;SHT31;18065;55.876;9.830;2023-03-01T05:22:40;21.38;47.61
31443;SHT31;18065;55.876;9.830;2023-03-01T05:25:09;21.39;47.57
31443;SHT31;18065;55.876;9.830;2023-03-01T05:27:39;21.35;47.59
31443;SHT31;18065;55.876;9.830;2023-03-01T05:30:10;21.35;47.60
31443;SHT31;18065;55.876;9.830;2023-03-01T05:32:43;21.38;47.58
31443;SHT31;18065;55.876;9.830;2023-03-01T05:35:12;21.36;47.61
31443;SHT31;18065;55.876;9.830;2023-03-01T05:37:44;21.36;47.58
31443;SHT31;18065;55.876;9.830;2023-03-01T05:40:13;21.36;47.56
31443;SHT31;18065;55.876;9.830;2023-03-01T05:42:43;21.35;47.58
31443;SHT31;18065;55.876;9.830;2023-03-01T05:45:12;21.34;47.52
31443;SHT31;18065;55.876;9.830;2023-03-01T05:47:41;21.35;47.58
31443;SHT31;18065;55.876;9.830;2023-03-01T05:50:12;21.36;47.56
31443;SHT31;18065;55.876;9.830;2023-03-01T05:52:47;21.34;47.55
31443;SHT31;18065;55.876;9.830;2023-03-01T05:55:16;21.36;47.52
31443;SHT31;18065;55.876;9.830;2023-03-01T05:57:44;21.34;47.52
31443;SHT31;18065;55.876;9.830;2023-03-01T06:00:14;21.35;47.56
31443;SHT31;18065;55.876;9.830;2023-03-01T06:02:43;21.34;47.54
31443;SHT31;18065;55.876;9.830;2023-03-01T06:05:12;21.32;47.52
31443;SHT31;18065;55.876;9.830;2023-03-01T06:07:40;21.32;47.53
31443;SHT31;18065;55.876;9.830;2023-03-01T06:10:12;21.32;47.52
31443;SHT31;18065;55.876;9.830;2023-03-01T06:12:41;21.32;47.53
31443;SHT31;18065;55.876;9.830;2023-03-01T06:15:10;21.29;47.50
31443;SHT31;18065;55.876;9.830;2023-03-01T06:17:39;21.29;47.52
31443;SHT31;18065;55.876;9.830;2023-03-01T06:20:09;21.32;47.53
31443;SHT31;18065;55.876;9.830;2023-03-01T06:22:40;21.31;47.50
31443;SHT31;18065;55.876;9.830;2023-03-01T06:25:09;21.31;47.49
31443;SHT31;18065;55.876;9.830;2023-03-01T06:27:40;21.29;47.48
31443;SHT31;18065;55.876;9.830;2023-03-01T06:30:09;21.28;47.48
31443;SHT31;18065;55.876;9.830;2023-03-01T06:32:39;21.27;47.50
31443;SHT31;18065;55.876;9.830;2023-03-01T06:35:09;21.27;47.52
31443;SHT31;18065;55.876;9.830;2023-03-01T06:37:37;21.31;47.47
31443;SHT31;18065;55.876;9.830;2023-03-01T06:40:06;21.28;47.46
31443;SHT31;18065;55.876;9.830;2023-03-01T06:42:36;21.29;47.46
31443;SHT31;18065;55.876;9.830;2023-03-01T06:45:08;21.28;47.45
31443;SHT31;18065;55.876;9.830;2023-03-01T06:47:37;21.28;47.43
31443;SHT31;18065;55.876;9.830;2023-03-01T06:50:05;21.28;47.40
31443;SHT31;18065;55.876;9.830;2023-03-01T06:52:34;21.28;47.41
31443;SHT31;18065;55.876;9.830;2023-03-01T06:55:02;21.28;47.45
31443;SHT31;18065;55.876;9.830;2023-03-01T06:57:31;21.27;47.43
31443;SHT31;18065;55.876;9.830;2023-03-01T07:00:00;21.28;47.43
31443;SHT31;18065;55.876;9.830;2023-03-01T07:02:31;21.27;47.46
31443;SHT31;18065;55.876;9.830;2023-03-01T07:04:59;21.25;47.42
31443;SHT31;18065;55.876;9.830;2023-03-01T07:07:27;21.25;47.42
31443;SHT31;18065;55.876;9.830;2023-03-01T07:09:56;21.25;47.42
31443;SHT31;18065;55.876;9.830;2023-03-01T07:12:24;21.27;47.42
31443;SHT31;18065;55.876;9.830;2023-03-01T07:14:52;21.25;47.42
31443;SHT31;18065;55.876;9.830;2023-03-01T07:17:21;21.27;47.41
31443;SHT31;18065;55.876;9.830;2023-03-01T07:19:52;21.27;47.42
31443;SHT31;18065;55.876;9.830;2023-03-01T07:22:20;21.25;47.38
31443;SHT31;18065;55.876;9.830;2023-03-01T07:24:48;21.27;47.38
31443;SHT31;18065;55.876;9.830;2023-03-01T07:27:17;21.22;47.39
31443;SHT31;18065;55.876;9.830;2023-03-01T07:29:45;21.23;47.36
31443;SHT31;18065;55.876;9.830;2023-03-01T07:32:13;21.25;47.37
31443;SHT31;18065;55.876;9.830;2023-03-01T07:34:42;21.25;47.41
31443;SHT31;18065;55.876;9.830;2023-03-01T07:37:13;21.25;47.39
31443;SHT31;18065;55.876;9.830;2023-03-01T07:39:41;21.23;47.39
31443;SHT31;18065;55.876;9.830;2023-03-01T07:42:10;21.22;47.42
31443;SHT31;18065;55.876;9.830;2023-03-01T07:44:38;21.25;47.35
31443;SHT31;18065;55.876;9.830;2023-03-01T07:47:06;21.25;47.37
31443;SHT31;18065;55.876;9.830;2023-03-01T07:49:35;21.25;47.37
31443;SHT31;18065;55.876;9.830;2023-03-01T07:52:03;21.23;47.37
31443;SHT31;18065;55.876;9.830;2023-03-01T07:54:34;21.25;47.35
31443;SHT31;18065;55.876;9.830;2023-03-01T07:57:03;21.25;47.37
31443;SHT31;18065;55.876;9.830;2023-03-01T07:59:31;21.21;47.38
31443;SHT31;18065;55.876;9.830;2023-03-01T08:01:59;21.23;47.35
31443;SHT31;18065;55.876;9.830;2023-03-01T08:04:28;21.23;47.34
31443;SHT31;18065;55.876;9.830;2023-03-01T08:06:56;21.21;47.34
31443;SHT31;18065;55.876;9.830;2023-03-01T08:09:24;21.22;47.34
31443;SHT31;18065;55.876;9.830;2023-03-01T08:11:55;21.22;47.32
31443;SHT31;18065;55.876;9.830;2023-03-01T08:14:24;21.22;47.33
31443;SHT31;18065;55.876;9.830;2023-03-01T08:16:53;21.23;47.32
31443;SHT31;18065;55.876;9.830;2023-03-01T08:19:21;21.19;47.33
31443;SHT31;18065;55.876;9.830;2023-03-01T08:21:49;21.22;47.29
31443;SHT31;18065;55.876;9.830;2023-03-01T08:24:18;21.22;47.33
31443;SHT31;18065;55.876;9.830;2023-03-01T08:26:46;21.19;47.32
31443;SHT31;18065;55.876;9.830;2023-03-01T08:29:17;21.19;47.32
31443;SHT31;18065;55.876;9.830;2023-03-01T08:31:45;21.19;47.32
31443;SHT31;18065;55.876;9.830;2023-03-01T08:34:14;21.19;47.36
31443;SHT31;18065;55.876;9.830;2023-03-01T08:36:44;21.19;47.31
31443;SHT31;18065;55.876;9.830;2023-03-01T08:39:13;21.21;47.33
31443;SHT31;18065;55.876;9.830;2023-03-01T08:41:41;21.19;47.31
31443;SHT31;18065;55.876;9.830;2023-03-01T08:44:10;21.19;47.32
31443;SHT31;18065;55.876;9.830;2023-03-01T08:46:42;21.18;47.30
31443;SHT31;18065;55.876;9.830;2023-03-01T08:49:11;21.19;47.32
31443;SHT31;18065;55.876;9.830;2023-03-01T08:51:40;21.21;47.29
31443;SHT31;18065;55.876;9.830;2023-03-01T08:54:09;21.19;47.31
31443;SHT31;18065;55.876;9.830;2023-03-01T08:56:39;21.19;47.34
31443;SHT31;18065;55.876;9.830;2023-03-01T08:59:09;21.19;47.31
31443;SHT31;18065;55.876;9.830;2023-03-01T09:01:37;21.19;47.27
31443;SHT31;18065;55.876;9.830;2023-03-01T09:04:11;21.21;47.28
31443;SHT31;18065;55.876;9.830;2023-03-01T09:06:39;21.19;47.29
31443;SHT31;18065;55.876;9.830;2023-03-01T09:09:10;21.18;47.29
31443;SHT31;18065;55.876;9.830;2023-03-01T09:11:40;21.18;47.27
31443;SHT31;18065;55.876;9.830;2023-03-01T09:14:08;21.18;47.30
31443;SHT31;18065;55.876;9.830;2023-03-01T09:16:37;21.19;47.27
31443;SHT31;18065;55.876;9.830;2023-03-01T09:19:05;21.19;47.29
31443;SHT31;18065;55.876;9.830;2023-03-01T09:21:36;21.19;47.27
31443;SHT31;18065;55.876;9.830;2023-03-01T09:24:05;21.18;47.25
31443;SHT31;18065;55.876;9.830;2023-03-01T09:26:34;21.19;47.27
31443;SHT31;18065;55.876;9.830;2023-03-01T09:29:02;21.18;47.30
31443;SHT31;18065;55.876;9.830;2023-03-01T09:31:31;21.18;47.28
31443;SHT31;18065;55.876;9.830;2023-03-01T09:33:59;21.18;47.31
31443;SHT31;18065;55.876;9.830;2023-03-01T09:36:27;21.19;47.27
31443;SHT31;18065;55.876;9.830;2023-03-01T09:38:59;21.19;47.29
31443;SHT31;18065;55.876;9.830;2023-03-01T09:44:22;21.18;47.28
31443;SHT31;18065;55.876;9.830;2023-03-01T09:46:51;21.18;47.31
31443;SHT31;18065;55.876;9.830;2023-03-01T09:49:20;21.15;47.29
31443;SHT31;18065;55.876;9.830;2023-03-01T09:51:54;21.16;47.29
31443;SHT31;18065;55.876;9.830;2023-03-01T09:54:26;21.19;47.28
31443;SHT31;18065;55.876;9.830;2023-03-01T09:59:45;21.18;47.27
31443;SHT31;18065;55.876;9.830;2023-03-01T10:02:23;21.19;47.28
31443;SHT31;18065;55.876;9.830;2023-03-01T10:04:52;21.18;47.30
31443;SHT31;18065;55.876;9.830;2023-03-01T10:07:25;21.18;47.26
31443;SHT31;18065;55.876;9.830;2023-03-01T10:09:58;21.19;47.28
31443;SHT31;18065;55.876;9.830;2023-03-01T10:12:31;21.16;47.27
31443;SHT31;18065;55.876;9.830;2023-03-01T10:15:03;21.18;47.29
31443;SHT31;18065;55.876;9.830;2023-03-01T10:17:34;21.19;47.28
31443;SHT31;18065;55.876;9.830;2023-03-01T10:20:10;21.18;47.28
31443;SHT31;18065;55.876;9.830;2023-03-01T10:22:42;21.19;47.29
31443;SHT31;18065;55.876;9.830;2023-03-01T10:25:20;21.16;47.31
31443;SHT31;18065;55.876;9.830;2023-03-01T10:27:51;21.16;47.34
31443;SHT31;18065;55.876;9.830;2023-03-01T10:30:21;21.19;47.32
31443;SHT31;18065;55.876;9.830;2023-03-01T10:32:51;21.19;47.34
31443;SHT31;18065;55.876;9.830;2023-03-01T10:35:20;21.21;47.34
31443;SHT31;18065;55.876;9.830;2023-03-01T10:37:56;21.19;47.35
31443;SHT31;18065;55.876;9.830;2023-03-01T10:40:27;21.16;47.34
31443;SHT31;18065;55.876;9.830;2023-03-01T10:42:57;21.21;47.36
31443;SHT31;18065;55.876;9.830;2023-03-01T10:45:33;21.19;47.34
31443;SHT31;18065;55.876;9.830;2023-03-01T10:48:08;21.19;47.35
31443;SHT31;18065;55.876;9.830;2023-03-01T10:50:38;21.21;47.34
31443;SHT31;18065;55.876;9.830;2023-03-01T10:53:18;21.23;47.33
31443;SHT31;18065;55.876;9.830;2023-03-01T10:55:51;21.22;47.32
31443;SHT31;18065;55.876;9.830;2023-03-01T10:58:24;21.21;47.30
31443;SHT31;18065;55.876;9.830;2023-03-01T11:00:53;21.22;47.38
31443;SHT31;18065;55.876;9.830;2023-03-01T11:03:22;21.22;47.30
31443;SHT31;18065;55.876;9.830;2023-03-01T11:06:01;21.23;47.32
31443;SHT31;18065;55.876;9.830;2023-03-01T11:08:31;21.23;47.32
31443;SHT31;18065;55.876;9.830;2023-03-01T11:11:12;21.22;47.34
31443;SHT31;18065;55.876;9.830;2023-03-01T11:13:47;21.23;47.33
31443;SHT31;18065;55.876;9.830;2023-03-01T11:16:22;21.22;47.33
31443;SHT31;18065;55.876;9.830;2023-03-01T11:18:56;21.22;47.30
31443;SHT31;18065;55.876;9.830;2023-03-01T11:21:24;21.25;47.34
31443;SHT31;18065;55.876;9.830;2023-03-01T11:23:54;21.22;47.35
31443;SHT31;18065;55.876;9.830;2023-03-01T11:26:26;21.23;47.34
31443;SHT31;18065;55.876;9.830;2023-03-01T11:28:55;21.23;47.31
31443;SHT31;18065;55.876;9.830;2023-03-01T11:31:25;21.23;47.34
31443;SHT31;18065;55.876;9.830;2023-03-01T11:33:55;21.22;47.31
31443;SHT31;18065;55.876;9.830;2023-03-01T11:36:26;21.23;47.31
31443;SHT31;18065;55.876;9.830;2023-03-01T11:38:56;21.23;47.29
31443;SHT31;18065;55.876;9.830;2023-03-01T11:41:28;21.23;47.34
31443;SHT31;18065;55.876;9.830;2023-03-01T11:43:59;21.23;47.32
31443;SHT31;18065;55.876;9.830;2023-03-01T11:49:18;21.22;47.30
31443;SHT31;18065;55.876;9.830;2023-03-01T11:51:51;21.23;47.32
31443;SHT31;18065;55.876;9.830;2023-03-01T11:54:27;21.22;47.32
31443;SHT31;18065;55.876;9.830;2023-03-01T11:57:03;21.25;47.30
31443;SHT31;18065;55.876;9.830;2023-03-01T11:59:36;21.22;47.31
31443;SHT31;18065;55.876;9.830;2023-03-01T12:05:01;21.22;47.32
31443;SHT31;18065;55.876;9.830;2023-03-01T12:07:33;21.21;47.34
31443;SHT31;18065;55.876;9.830;2023-03-01T12:12:52;21.21;47.36
31443;SHT31;18065;55.876;9.830;2023-03-01T12:15:31;21.21;47.36
31443;SHT31;18065;55.876;9.830;2023-03-01T12:18:05;21.19;47.37
31443;SHT31;18065;55.876;9.830;2023-03-01T12:20:39;21.22;47.34
31443;SHT31;18065;55.876;9.830;2023-03-01T12:25:56;21.19;47.31
31443;SHT31;18065;55.876;9.830;2023-03-01T12:28:35;21.21;47.32
31443;SHT31;18065;55.876;9.830;2023-03-01T12:33:57;21.22;47.32
31443;SHT31;18065;55.876;9.830;2023-03-01T12:36:36;21.21;47.36
31443;SHT31;18065;55.876;9.830;2023-03-01T12:39:16;21.22;47.34
31443;SHT31;18065;55.876;9.830;2023-03-01T12:41:52;21.22;47.37
31443;SHT31;18065;55.876;9.830;2023-03-01T12:44:35;21.19;47.39
31443;SHT31;18065;55.876;9.830;2023-03-01T12:47:15;21.21;47.39
31443;SHT31;18065;55.876;9.830;2023-03-01T12:49:48;21.18;47.34
31443;SHT31;18065;55.876;9.830;2023-03-01T12:52:19;21.18;47.39
31443;SHT31;18065;55.876;9.830;2023-03-01T12:54:50;21.19;47.36
31443;SHT31;18065;55.876;9.830;2023-03-01T12:57:20;21.19;47.35
31443;SHT31;18065;55.876;9.830;2023-03-01T12:59:57;21.18;47.38
31443;SHT31;18065;55.876;9.830;2023-03-01T13:02:29;21.19;47.37
31443;SHT31;18065;55.876;9.830;2023-03-01T13:05:02;21.16;47.34
31443;SHT31;18065;55.876;9.830;2023-03-01T13:07:35;21.21;47.31
31443;SHT31;18065;55.876;9.830;2023-03-01T13:10:11;21.21;47.34
31443;SHT31;18065;55.876;9.830;2023-03-01T13:12:50;21.21;47.34
31443;SHT31;18065;55.876;9.830;2023-03-01T13:15:29;21.18;47.35
31443;SHT31;18065;55.876;9.830;2023-03-01T13:17:58;21.19;47.34
31443;SHT31;18065;55.876;9.830;2023-03-01T13:20:27;21.19;47.35
31443;SHT31;18065;55.876;9.830;2023-03-01T13:23:04;21.19;47.37
31443;SHT31;18065;55.876;9.830;2023-03-01T13:25:34;21.16;47.37
31443;SHT31;18065;55.876;9.830;2023-03-01T13:30:49;21.16;47.38
31443;SHT31;18065;55.876;9.830;2023-03-01T13:33:33;21.18;47.38
31443;SHT31;18065;55.876;9.830;2023-03-01T13:36:02;21.18;47.39
31443;SHT31;18065;55.876;9.830;2023-03-01T13:38:37;21.18;47.40
31443;SHT31;18065;55.876;9.830;2023-03-01T13:41:06;21.16;47.42
31443;SHT31;18065;55.876;9.830;2023-03-01T13:43:35;21.19;47.40
31443;SHT31;18065;55.876;9.830;2023-03-01T13:46:10;21.16;47.40
31443;SHT31;18065;55.876;9.830;2023-03-01T13:48:39;21.18;47.41
31443;SHT31;18065;55.876;9.830;2023-03-01T13:51:09;21.18;47.41
31443;SHT31;18065;55.876;9.830;2023-03-01T13:53:39;21.15;47.40
31443;SHT31;18065;55.876;9.830;2023-03-01T13:56:09;21.18;47.40
31443;SHT31;18065;55.876;9.830;2023-03-01T13:58:49;21.18;47.41
31443;SHT31;18065;55.876;9.830;2023-03-01T14:01:24;21.18;47.38
31443;SHT31;18065;55.876;9.830;2023-03-01T14:03:53;21.18;47.39
31443;SHT31;18065;55.876;9.830;2023-03-01T14:06:22;21.16;47.36
31443;SHT31;18065;55.876;9.830;2023-03-01T14:08:52;21.15;47.42
31443;SHT31;18065;55.876;9.830;2023-03-01T14:11:22;21.16;47.39
31443;SHT31;18065;55.876;9.830;2023-03-01T14:13:58;21.16;47.40
31443;SHT31;18065;55.876;9.830;2023-03-01T14:16:35;21.15;47.41
31443;SHT31;18065;55.876;9.830;2023-03-01T14:19:09;21.16;47.43
31443;SHT31;18065;55.876;9.830;2023-03-01T14:21:42;21.18;47.41
31443;SHT31;18065;55.876;9.830;2023-03-01T14:24:17;21.16;47.40
31443;SHT31;18065;55.876;9.830;2023-03-01T14:26:45;21.15;47.42
31443;SHT31;18065;55.876;9.830;2023-03-01T14:29:24;21.16;47.40
31443;SHT31;18065;55.876;9.830;2023-03-01T14:31:55;21.15;47.40
31443;SHT31;18065;55.876;9.830;2023-03-01T14:34:36;21.16;47.42
31443;SHT31;18065;55.876;9.830;2023-03-01T14:37:11;21.14;47.43
31443;SHT31;18065;55.876;9.830;2023-03-01T14:39:39;21.15;47.42
31443;SHT31;18065;55.876;9.830;2023-03-01T14:42:08;21.15;47.44
31443;SHT31;18065;55.876;9.830;2023-03-01T14:44:36;21.15;47.41
31443;SHT31;18065;55.876;9.830;2023-03-01T14:47:10;21.18;47.43
31443;SHT31;18065;55.876;9.830;2023-03-01T14:49:40;21.14;47.42
31443;SHT31;18065;55.876;9.830;2023-03-01T14:52:17;21.16;47.45
31443;SHT31;18065;55.876;9.830;2023-03-01T14:54:46;21.15;47.42
31443;SHT31;18065;55.876;9.830;2023-03-01T14:57:17;21.14;47.44
31443;SHT31;18065;55.876;9.830;2023-03-01T14:59:46;21.14;47.48
31443;SHT31;18065;55.876;9.830;2023-03-01T15:02:19;21.15;47.43
31443;SHT31;18065;55.876;9.830;2023-03-01T15:04:50;21.15;47.47
31443;SHT31;18065;55.876;9.830;2023-03-01T15:07:19;21.15;47.50
31443;SHT31;18065;55.876;9.830;2023-03-01T15:09:47;21.14;47.45
31443;SHT31;18065;55.876;9.830;2023-03-01T15:12:32;21.15;47.48
31443;SHT31;18065;55.876;9.830;2023-03-01T15:15:08;21.15;47.48
31443;SHT31;18065;55.876;9.830;2023-03-01T15:17:51;21.15;47.45
31443;SHT31;18065;55.876;9.830;2023-03-01T15:20:20;21.16;47.48
31443;SHT31;18065;55.876;9.830;2023-03-01T15:22:51;21.15;47.45
31443;SHT31;18065;55.876;9.830;2023-03-01T15:25:19;21.15;47.50
31443;SHT31;18065;55.876;9.830;2023-03-01T15:27:49;21.12;47.48
31443;SHT31;18065;55.876;9.830;2023-03-01T15:30:20;21.15;47.54
31443;SHT31;18065;55.876;9.830;2023-03-01T15:32:59;21.16;47.53
31443;SHT31;18065;55.876;9.830;2023-03-01T15:35:45;21.15;47.55
31443;SHT31;18065;55.876;9.830;2023-03-01T15:38:26;21.14;47.53
31443;SHT31;18065;55.876;9.830;2023-03-01T15:40:55;21.12;47.52
31443;SHT31;18065;55.876;9.830;2023-03-01T15:43:37;21.15;47.57
31443;SHT31;18065;55.876;9.830;2023-03-01T15:46:05;21.15;47.54
31443;SHT31;18065;55.876;9.830;2023-03-01T15:48:43;21.15;47.58
31443;SHT31;18065;55.876;9.830;2023-03-01T15:51:12;21.14;47.55
31443;SHT31;18065;55.876;9.830;2023-03-01T15:53:42;21.14;47.55
31443;SHT31;18065;55.876;9.830;2023-03-01T15:56:11;21.15;47.54
31443;SHT31;18065;55.876;9.830;2023-03-01T15:58:39;21.18;47.54
31443;SHT31;18065;55.876;9.830;2023-03-01T16:01:08;21.14;47.57
31443;SHT31;18065;55.876;9.830;2023-03-01T16:03:39;21.16;47.56
31443;SHT31;18065;55.876;9.830;2023-03-01T16:06:11;21.12;47.60
31443;SHT31;18065;55.876;9.830;2023-03-01T16:08:39;21.15;47.64
31443;SHT31;18065;55.876;9.830;2023-03-01T16:11:13;21.15;47.62
31443;SHT31;18065;55.876;9.830;2023-03-01T16:13:41;21.14;47.59